Latest Weather Observations for Lockhart River

IDQ60801

Issued at 12:02 pm EST Sunday 14 April 2024 (issued every 10 minutes, with the page automatically refreshed every 10 minutes)

About weather observations | Map of weather stations | Latest weather observations for QLD | Other Formats
Station Details ID: 028008 Name: LOCKHART RIVER AIRPORT Lat: -12.79 Lon: 143.30 Height: 18.5 m
Data from the previous 72 hours. | See also: Recent months at Lockhart River
Date/Time
EST
Temp
°C
App
Temp
°C
Dew
Point
°C
Rel
Hum
%
Delta-T
°C
Wind Press
QNH
hPa
Press
MSL
hPa
Rain since
9am
mm
Dir  Spd
km/h
Gust
km/h
Spd
kts
Gust
kts
14/12:00pm 30.5 31.3 24.4 70 4.3 SE 28 37 15 20 1013.1 1013.0 0.2
14/11:30am 30.9 31.7 24.5 68 4.5 SE 28 43 15 23 1013.6 1013.5 0.2
14/11:00am 30.1 31.6 24.3 71 4.0 SE 24 33 13 18 1014.0 1013.9 0.2
14/10:30am 30.1 31.7 24.5 72 3.9 SE 24 37 13 20 1014.4 1014.3 0.2
14/10:00am 29.9 32.6 25.0 75 3.4 SSE 20 28 11 15 1014.5 1014.4 0.2
14/09:30am 28.5 30.7 23.9 76 3.2 SSE 19 24 10 13 1014.4 1014.3 0.0
14/09:00am 27.3 30.4 23.5 80 2.6 SSE 13 22 7 12 1014.2 1014.1 0.4
14/08:30am 26.4 29.5 24.1 87 1.6 SSE 15 20 8 11 1014.0 1013.9 0.4
14/08:00am 25.7 29.9 23.4 87 1.6 SSE 7 9 4 5 1013.7 1013.6 0.4
14/07:30am 25.0 29.2 23.2 90 1.2 SE 6 7 3 4 1013.5 1013.4 0.4
14/07:00am 24.8 28.2 22.7 88 1.4 SE 9 11 5 6 1013.2 1013.1 0.4
14/06:30am 24.5 27.5 22.0 86 1.7 SSE 9 11 5 6 1012.7 1012.6 0.4
14/06:00am 23.8 29.1 23.0 95 0.5 CALM 0 0 0 0 1012.4 1012.3 0.4
14/05:30am 23.7 29.0 23.0 96 0.5 CALM 0 0 0 0 1012.1 1012.0 0.4
14/05:00am 23.6 28.8 22.9 96 0.5 CALM 0 0 0 0 1012.0 1011.9 0.4
14/04:30am 23.2 28.2 22.5 96 0.5 CALM 0 0 0 0 1012.0 1011.9 0.4
14/04:00am 23.4 28.5 22.6 95 0.5 CALM 0 0 0 0 1012.0 1011.9 0.4
14/03:30am 23.5 28.6 22.7 95 0.5 CALM 0 0 0 0 1011.9 1011.8 0.4
14/03:00am 23.6 28.7 22.6 94 0.7 CALM 0 0 0 0 1012.1 1012.0 0.4
14/02:30am 24.4 29.1 22.7 90 1.1 S 2 6 1 3 1012.3 1012.2 0.4
14/02:00am 25.0 29.3 22.7 87 1.6 S 4 6 2 3 1012.5 1012.4 0.4
14/01:30am 25.4 28.7 21.9 81 2.3 SSW 7 9 4 5 1012.8 1012.7 0.4
14/01:00am 25.6 28.9 21.9 80 2.5 SSE 7 13 4 7 1013.1 1013.0 0.4
14/12:30am 26.1 28.2 21.7 77 2.9 SE 13 17 7 9 1013.3 1013.2 0.4
14/12:00am 26.5 27.9 21.9 76 3.1 SE 17 24 9 13 1013.5 1013.4 0.4
 
Date/Time
EST
Temp
°C
App
Temp
°C
Dew
Point
°C
Rel
Hum
%
Delta-T
°C
Wind Press
QNH
hPa
Press
MSL
hPa
Rain since
9am
mm
Dir  Spd
km/h
Gust
km/h
Spd
kts
Gust
kts
13/11:30pm 26.7 28.1 21.9 75 3.2 SE 17 22 9 12 1013.7 1013.6 0.4
13/11:00pm 26.6 28.1 22.0 76 3.1 SE 17 22 9 12 1013.6 1013.5 0.4
13/10:30pm 26.7 28.6 22.1 76 3.1 SE 15 22 8 12 1013.7 1013.6 0.4
13/10:00pm 26.8 28.9 22.4 77 3.0 SSE 15 22 8 12 1013.7 1013.6 0.4
13/09:30pm 26.9 28.5 22.1 75 3.2 SE 17 24 9 13 1013.7 1013.6 0.4
13/09:00pm 26.8 28.8 22.2 76 3.1 SE 15 22 8 12 1013.5 1013.4 0.4
13/08:30pm 26.8 28.7 22.0 75 3.2 SE 15 19 8 10 1013.2 1013.1 0.4
13/08:00pm 27.1 28.1 21.8 73 3.5 SE 19 26 10 14 1012.8 1012.7 0.4
13/07:30pm 27.1 28.3 22.1 74 3.4 SE 19 28 10 15 1012.6 1012.5 0.4
13/07:00pm 26.5 28.8 22.8 80 2.5 SE 15 19 8 10 1012.3 1012.2 0.4
13/06:30pm 27.7 28.5 22.4 73 3.6 SE 22 37 12 20 1012.0 1011.9 0.4
13/06:00pm 28.0 28.8 22.5 72 3.7 SE 22 32 12 17 1011.8 1011.7 0.4
13/05:30pm 28.1 29.6 23.0 74 3.5 SE 20 28 11 15 1011.7 1011.6 0.4
13/05:00pm 28.0 29.4 22.9 74 3.5 SE 20 30 11 16 1011.3 1011.2 0.4
13/04:30pm 27.2 31.4 24.7 86 1.7 S 11 19 6 10 1011.1 1011.0 0.4
13/04:00pm 27.4 29.8 23.6 80 2.6 SE 17 22 9 12 1010.9 1010.8 0.4
13/03:30pm 27.5 29.9 24.6 84 2.0 SE 20 33 11 18 1010.9 1010.8 0.4
13/03:10pm 26.4 31.9 24.6 90 1.2 NE 4 9 2 5 1011.0 1010.9 0.4
13/03:00pm 26.1 29.5 24.1 89 1.4 E 13 30 7 16 1011.1 1011.0 0.4
13/02:54pm 26.2 28.2 23.9 87 1.6 SE 20 30 11 16 1011.2 1011.1 0.4
13/02:30pm 28.8 30.3 24.4 77 3.1 SE 24 33 13 18 1011.2 1011.1 0.2
13/02:00pm 29.2 30.3 24.3 75 3.4 SE 26 37 14 20 1011.2 1011.1 0.2
13/01:30pm 28.4 31.9 24.8 81 2.5 SE 15 19 8 10 1011.4 1011.3 0.2
13/01:00pm 28.4 31.8 24.6 80 2.6 SSE 15 22 8 12 1011.8 1011.7 0.2
13/12:30pm 27.3 28.8 24.4 84 2.0 ESE 24 35 13 19 1012.1 1012.0 0.2
13/12:00pm 29.4 31.4 24.0 72 3.7 SE 20 28 11 15 1012.3 1012.2 0.2
13/11:30am 29.7 31.3 23.2 68 4.5 ESE 20 30 11 16 1012.6 1012.5 0.2
13/11:00am 29.9 32.3 24.3 72 3.9 ESE 19 28 10 15 1012.9 1012.8 0.2
13/10:30am 29.9 32.3 24.3 72 3.9 ESE 19 24 10 13 1013.2 1013.1 0.0
13/10:00am 28.7 32.5 24.0 76 3.3 SE 11 17 6 9 1013.3 1013.2 0.0
13/09:30am 26.7 31.2 24.0 85 1.9 S 7 11 4 6 1013.2 1013.1 0.0
13/09:00am 25.6 30.6 23.8 90 1.2 S 4 11 2 6 1013.0 1012.9 0.0
13/08:30am 24.7 30.5 24.0 96 0.5 CALM 0 6 0 3 1012.7 1012.6 0.0
13/08:00am 24.0 29.7 23.7 98 0.2 CALM 0 0 0 0 1012.5 1012.4 0.0
13/07:30am 23.0 28.1 22.7 98 0.2 CALM 0 0 0 0 1012.3 1012.2 0.0
13/07:00am 22.5 27.3 22.2 98 0.2 CALM 0 0 0 0 1011.9 1011.8 0.0
13/06:30am 22.4 27.2 22.1 98 0.2 CALM 0 0 0 0 1011.6 1011.5 0.0
13/06:00am 22.5 27.3 22.2 98 0.2 CALM 0 0 0 0 1011.4 1011.3 0.0
13/05:30am 22.6 27.5 22.3 98 0.2 CALM 0 0 0 0 1011.1 1011.0 0.0
13/05:00am 22.8 27.8 22.5 98 0.2 CALM 0 0 0 0 1010.8 1010.7 0.0
13/04:30am 23.1 27.9 22.8 98 0.2 NNW 2 7 1 4 1010.8 1010.7 0.0
13/04:00am 23.2 28.4 22.9 98 0.2 CALM 0 6 0 3 1010.9 1010.8 0.0
13/03:30am 23.1 27.1 22.8 98 0.2 E 6 7 3 4 1011.1 1011.0 0.0
13/03:00am 22.9 28.0 22.6 98 0.2 CALM 0 0 0 0 1011.3 1011.2 0.0
13/02:30am 22.4 27.2 22.1 98 0.2 CALM 0 0 0 0 1011.4 1011.3 0.0
13/02:00am 22.6 27.5 22.3 98 0.2 CALM 0 0 0 0 1011.6 1011.5 0.0
13/01:30am 22.3 27.0 22.0 98 0.2 CALM 0 0 0 0 1011.9 1011.8 0.0
13/01:00am 22.4 27.1 21.9 97 0.3 CALM 0 0 0 0 1012.2 1012.1 0.0
13/12:30am 22.3 26.9 21.8 97 0.3 CALM 0 0 0 0 1012.2 1012.1 0.0
13/12:00am 22.5 27.2 22.0 97 0.3 CALM 0 0 0 0 1012.4 1012.3 0.0
 
Date/Time
EST
Temp
°C
App
Temp
°C
Dew
Point
°C
Rel
Hum
%
Delta-T
°C
Wind Press
QNH
hPa
Press
MSL
hPa
Rain since
9am
mm
Dir  Spd
km/h
Gust
km/h
Spd
kts
Gust
kts
12/11:30pm 22.6 27.4 22.1 97 0.3 CALM 0 0 0 0 1012.6 1012.5 0.0
12/11:00pm 22.4 27.1 21.9 97 0.3 CALM 0 0 0 0 1012.5 1012.4 0.0
12/10:30pm 22.6 27.4 22.1 97 0.3 CALM 0 0 0 0 1012.7 1012.6 0.0
12/10:00pm 22.5 27.1 21.8 96 0.5 CALM 0 0 0 0 1012.7 1012.6 0.0
12/09:30pm 22.6 27.3 21.9 96 0.5 CALM 0 0 0 0 1012.8 1012.7 0.0
12/09:00pm 22.7 27.4 22.0 96 0.5 CALM 0 0 0 0 1012.5 1012.4 0.0
12/08:30pm 23.1 28.0 22.3 95 0.5 CALM 0 0 0 0 1012.3 1012.2 0.0
12/08:00pm 23.5 28.4 22.3 93 0.8 CALM 0 0 0 0 1012.1 1012.0 0.0
12/07:30pm 24.6 29.1 22.3 87 1.5 SE 2 6 1 3 1011.7 1011.6 0.0
12/07:00pm 26.2 28.8 21.2 74 3.3 SE 9 11 5 6 1011.2 1011.1 0.0
12/06:30pm 26.8 28.5 20.9 70 3.9 SE 13 15 7 8 1010.8 1010.7 0.0
12/06:00pm 27.6 28.7 20.4 65 4.7 SE 15 24 8 13 1010.4 1010.3 0.0
12/05:30pm 28.6 28.0 20.6 62 5.3 SE 24 33 13 18 1010.1 1010.0 0.0
12/05:00pm 28.8 29.1 20.8 62 5.3 SE 20 30 11 16 1010.0 1009.9 0.0
12/04:30pm 29.6 30.2 21.3 61 5.6 SE 20 28 11 15 1009.9 1009.8 0.0
12/04:00pm 29.8 30.0 20.6 57 6.1 SE 20 30 11 16 1009.9 1009.8 0.0
12/03:30pm 30.7 30.0 20.3 53 6.9 SE 24 33 13 18 1010.0 1009.9 0.0
12/03:00pm 30.3 29.9 20.2 54 6.7 ESE 22 32 12 17 1009.9 1009.8 0.0
12/02:30pm 30.7 29.5 20.0 52 7.1 SE 26 35 14 19 1010.1 1010.0 0.0
12/02:00pm 30.3 30.4 21.1 58 6.2 ESE 22 33 12 18 1010.5 1010.4 0.0
12/01:30pm 30.1 30.1 20.9 57 6.1 ESE 22 32 12 17 1010.8 1010.7 0.0
12/01:00pm 30.1 29.1 18.8 50 7.3 ESE 22 30 12 16 1011.2 1011.1 0.0
12/12:30pm 30.5 29.7 19.2 51 7.4 ESE 22 30 12 16 1011.5 1011.4 0.0
12/12:00pm 30.4 28.9 18.5 49 7.7 ESE 24 35 13 19 1012.1 1012.0 0.0
12/11:30am 30.6 29.9 20.2 53 6.9 ESE 24 35 13 19 1012.8 1012.7 0.0
12/11:00am 30.0 30.0 21.7 61 5.6 ESE 24 37 13 20 1013.1 1013.0 0.0
12/10:30am 29.1 28.8 21.1 62 5.3 ESE 24 39 13 21 1013.1 1013.0 0.0
12/10:00am 29.3 30.2 22.0 64 4.9 SE 20 33 11 18 1013.3 1013.2 0.0
12/09:30am 28.9 28.1 20.1 59 5.8 ESE 24 35 13 19 1013.1 1013.0 0.0
12/09:00am 29.0 29.2 20.2 59 5.8 SE 19 26 10 14 1012.9 1012.8 0.4
12/08:30am 28.3 28.1 19.8 60 5.5 ESE 20 32 11 17 1012.5 1012.4 0.4
12/08:00am 27.6 27.7 20.4 65 4.7 SE 20 28 11 15 1012.1 1012.0 0.4
12/07:30am 26.8 27.4 21.1 71 3.8 SE 19 30 10 16 1011.7 1011.6 0.4
12/07:00am 26.7 26.8 21.2 72 3.6 SE 22 30 12 16 1011.5 1011.4 0.4
12/06:30am 26.8 27.0 21.3 72 3.7 SE 22 37 12 20 1011.0 1010.9 0.4
12/06:00am 26.9 27.2 21.6 72 3.5 SE 22 33 12 18 1010.7 1010.6 0.4
12/05:30am 26.9 27.2 21.6 72 3.5 ESE 22 35 12 19 1010.5 1010.4 0.4
12/05:00am 26.8 27.7 22.0 75 3.2 SE 20 35 11 19 1010.6 1010.5 0.4
12/04:30am 26.4 28.3 22.7 80 2.5 ESE 17 26 9 14 1010.4 1010.3 0.4
12/04:00am 25.2 27.6 22.3 84 1.9 ESE 13 32 7 17 1010.4 1010.3 0.4
12/03:30am 25.5 28.8 23.2 87 1.6 ESE 11 19 6 10 1010.5 1010.4 0.2
12/03:00am 27.7 29.3 22.9 75 3.3 ESE 19 28 10 15 1010.4 1010.3 0.0
12/02:30am 27.8 28.5 22.3 72 3.7 ESE 22 32 12 17 1010.5 1010.4 0.0
12/02:00am 27.6 29.3 22.3 73 3.6 ESE 17 28 9 15 1010.7 1010.6 0.0
12/01:30am 27.7 28.8 22.0 71 3.8 SE 19 26 10 14 1011.1 1011.0 0.0
12/01:00am 27.7 28.8 22.0 71 3.8 ESE 19 26 10 14 1011.4 1011.3 0.0
12/12:30am 27.8 29.0 22.5 73 3.6 ESE 20 30 11 16 1011.7 1011.6 0.0
12/12:00am 27.8 29.2 22.5 73 3.6 ESE 19 32 10 17 1011.9 1011.8 0.0
 
Date/Time
EST
Temp
°C
App
Temp
°C
Dew
Point
°C
Rel
Hum
%
Delta-T
°C
Wind Press
QNH
hPa
Press
MSL
hPa
Rain since
9am
mm
Dir  Spd
km/h
Gust
km/h
Spd
kts
Gust
kts
11/11:30pm 27.6 28.8 22.5 74 3.5 ESE 20 33 11 18 1011.9 1011.8 0.0
11/11:00pm 27.7 29.4 23.1 76 3.1 SE 19 26 10 14 1012.0 1011.9 0.0
11/10:30pm 27.7 29.1 22.9 75 3.3 SE 20 28 11 15 1011.9 1011.8 0.0
11/10:00pm 27.7 29.7 22.9 75 3.3 SE 17 30 9 16 1012.1 1012.0 0.0
11/09:30pm 27.7 29.4 23.1 76 3.1 SE 19 26 10 14 1012.1 1012.0 0.0
11/09:00pm 27.8 30.0 23.2 76 3.1 SE 17 24 9 13 1011.9 1011.8 0.0
11/08:30pm 27.8 30.1 23.4 77 3.0 SE 17 24 9 13 1011.6 1011.5 0.0
11/08:00pm 27.1 30.5 23.3 80 2.6 SE 11 15 6 8 1011.3 1011.2 0.0
11/07:30pm 27.1 29.8 22.9 78 2.9 SE 13 19 7 10 1010.9 1010.8 0.0
11/07:00pm 27.3 29.9 22.7 76 3.1 SE 13 15 7 8 1010.9 1010.8 0.0
11/06:30pm 27.9 29.8 22.8 74 3.5 SE 17 26 9 14 1010.6 1010.5 0.0
11/06:00pm 28.4 30.0 22.9 72 3.8 SE 19 26 10 14 1010.5 1010.4 0.0
11/05:30pm 28.6 30.7 23.1 72 3.8 SE 17 24 9 13 1010.4 1010.3 0.0
11/05:00pm 28.7 31.1 23.6 74 3.5 SE 17 22 9 12 1010.2 1010.1 0.0
11/04:30pm 28.4 30.1 23.1 73 3.6 SE 19 26 10 14 1010.1 1010.0 0.0
11/04:00pm 26.9 28.9 24.0 84 2.0 SSE 20 32 11 17 1009.9 1009.8 0.0
11/03:30pm 27.9 30.7 24.3 81 2.5 ESE 17 26 9 14 1009.6 1009.5 0.0
11/03:00pm 26.6 29.1 24.4 88 1.5 ESE 19 32 10 17 1009.7 1009.6 0.0
11/02:30pm 28.4 32.4 25.6 85 2.0 E 15 20 8 11 1009.5 1009.4 0.0
11/02:00pm 28.8 31.2 24.6 78 2.9 E 20 32 11 17 1009.8 1009.7 0.0
11/01:30pm 31.0 33.5 25.4 72 4.0 E 22 33 12 18 1009.8 1009.7 0.0
11/01:00pm 30.9 33.4 24.8 70 4.3 E 20 30 11 16 1010.0 1009.9 0.0
11/12:30pm 30.3 33.0 25.1 73 3.7 E 20 32 11 17 1010.4 1010.3 0.0

Other formats

Comma delimited format used in spreadsheet applications
http://www.bom.gov.au/fwo/IDQ60801/IDQ60801.94186.axf

JavaScript Object Notation format (JSON) in row-major order
http://www.bom.gov.au/fwo/IDQ60801/IDQ60801.94186.json

Data quality

Most of these data are generated automatically and are frequently updated. Quality checks on data are not normally performed. It is possible for incorrect values to appear. Refer to information at About Latest Weather Observations and please check the disclaimer before using these data.